Time;durP1;ratioP1;P1;durP2;ratioP2;P2;SDS_P1;SDS_P2;PMS_P1;PMS_P2;Temp;Humidity;BMP_temperature;BMP_pressure;BME280_temperature;BME280_humidity;BME280_pressure;Samples;Min_cycle;Max_cycle;Signal;HPM_P1;HPM_P2
2020/12/20 00:01:52;;;;;;;15.63;3.50;;;8.40;99.90;;;;;;5074479;28;20231;-75
2020/12/20 00:04:18;;;;;;;17.87;3.53;;;8.40;99.90;;;;;;5055029;28;20229;-75
2020/12/20 00:06:45;;;;;;;16.20;3.60;;;8.40;99.90;;;;;;5035474;28;20631;-75
2020/12/20 00:09:14;;;;;;;14.83;4.07;;;8.40;99.90;;;;;;5054120;28;20248;-75
2020/12/20 00:11:44;;;;;;;21.30;4.00;;;8.40;99.90;;;;;;5054366;28;20289;-75
2020/12/20 00:14:27;;;;;;;20.17;3.87;;;8.40;99.90;;;;;;5054041;28;20259;-75
2020/12/20 00:16:59;;;;;;;18.80;3.50;;;8.40;99.90;;;;;;5053732;28;20238;-75
2020/12/20 00:19:26;;;;;;;17.53;4.37;;;8.40;99.90;;;;;;5053863;28;20271;-75
2020/12/20 00:21:58;;;;;;;17.97;3.40;;;8.40;99.90;;;;;;5053729;28;20633;-75
2020/12/20 00:24:25;;;;;;;21.03;4.33;;;8.40;99.90;;;;;;5054062;28;20228;-75
2020/12/20 00:26:52;;;;;;;14.87;3.23;;;8.40;99.90;;;;;;5070635;28;20329;-75
2020/12/20 00:29:19;;;;;;;13.40;3.10;;;8.40;99.90;;;;;;5073822;28;20273;-75
2020/12/20 00:31:46;;;;;;;18.37;3.87;;;8.30;99.90;;;;;;5073773;28;20296;-75
2020/12/20 00:34:13;;;;;;;18.30;3.47;;;8.30;99.90;;;;;;5073227;28;20316;-76
2020/12/20 00:36:42;;;;;;;16.03;3.73;;;8.20;99.90;;;;;;5055990;28;20290;-75
2020/12/20 00:39:09;;;;;;;19.50;3.47;;;8.20;99.90;;;;;;5073710;28;20230;-75
2020/12/20 00:41:35;;;;;;;14.93;3.50;;;8.20;99.90;;;;;;5065579;28;20223;-75
2020/12/20 00:44:01;;;;;;;19.30;3.63;;;8.20;99.90;;;;;;5073890;28;20300;-75
2020/12/20 00:46:29;;;;;;;15.97;3.40;;;8.20;99.90;;;;;;5073122;28;20293;-75
2020/12/20 00:48:55;;;;;;;16.60;3.53;;;8.20;99.90;;;;;;5073245;28;20243;-75
2020/12/20 00:51:22;;;;;;;13.37;3.20;;;8.20;99.90;;;;;;5073432;28;20204;-75
2020/12/20 00:53:48;;;;;;;23.67;3.53;;;8.10;99.90;;;;;;5072852;28;20250;-75
2020/12/20 00:56:15;;;;;;;26.10;4.47;;;8.20;99.90;;;;;;5073228;28;20280;-75
2020/12/20 00:58:42;;;;;;;25.47;3.90;;;8.20;99.90;;;;;;5073160;28;20249;-76
2020/12/20 01:01:09;;;;;;;20.00;3.90;;;8.20;99.90;;;;;;5072964;28;20275;-75
2020/12/20 01:03:37;;;;;;;18.07;3.40;;;8.10;99.90;;;;;;5072806;28;20203;-75
2020/12/20 01:06:04;;;;;;;17.63;3.63;;;8.10;99.90;;;;;;5057897;28;20282;-75
2020/12/20 01:08:30;;;;;;;19.30;3.50;;;8.00;99.90;;;;;;5066297;28;20288;-75
2020/12/20 01:10:56;;;;;;;18.97;3.27;;;8.10;99.90;;;;;;5059409;28;20695;-75
2020/12/20 01:13:23;;;;;;;24.57;4.20;;;7.90;99.90;;;;;;5052988;28;20245;-75
2020/12/20 01:15:49;;;;;;;20.70;3.73;;;8.00;99.90;;;;;;5052764;28;20373;-75
2020/12/20 01:18:16;;;;;;;17.43;3.43;;;8.00;99.90;;;;;;5052790;28;20242;-75
2020/12/20 01:20:44;;;;;;;15.03;3.13;;;8.00;99.90;;;;;;5052525;28;20628;-75
2020/12/20 01:23:10;;;;;;;20.70;3.67;;;7.90;99.90;;;;;;5052627;28;20779;-75
2020/12/20 01:25:36;;;;;;;15.93;3.60;;;7.90;99.90;;;;;;5059346;28;20321;-75
2020/12/20 01:28:03;;;;;;;17.07;3.67;;;7.80;99.90;;;;;;5054777;28;20301;-75
2020/12/20 01:30:29;;;;;;;12.07;3.10;;;7.80;99.90;;;;;;5072445;28;20290;-75
2020/12/20 01:32:56;;;;;;;17.63;3.40;;;7.70;99.90;;;;;;5072228;28;20646;-75
2020/12/20 01:35:22;;;;;;;15.03;2.83;;;7.70;99.90;;;;;;5072502;28;20317;-75
2020/12/20 01:37:49;;;;;;;17.80;3.37;;;7.70;99.90;;;;;;5072649;28;20620;-75
2020/12/20 01:40:16;;;;;;;15.77;3.47;;;7.60;99.90;;;;;;5072827;28;20619;-75
2020/12/20 01:42:42;;;;;;;14.57;3.17;;;7.60;99.90;;;;;;5072293;28;20242;-75
2020/12/20 01:45:09;;;;;;;17.20;3.17;;;7.60;99.90;;;;;;5072428;28;20226;-75
2020/12/20 01:47:35;;;;;;;20.60;3.70;;;7.70;99.90;;;;;;5071570;28;20291;-75
2020/12/20 01:50:06;;;;;;;13.87;3.00;;;7.60;99.90;;;;;;5072702;28;20210;-75
2020/12/20 01:52:33;;;;;;;15.17;2.90;;;7.60;99.90;;;;;;5072145;28;20217;-75
2020/12/20 01:55:00;;;;;;;15.33;2.90;;;7.60;99.90;;;;;;5072298;28;20223;-75
2020/12/20 01:57:27;;;;;;;14.57;2.60;;;7.60;99.90;;;;;;5072171;28;20231;-75
2020/12/20 01:59:54;;;;;;;14.90;2.80;;;7.60;99.90;;;;;;5071956;28;20671;-75
2020/12/20 02:02:20;;;;;;;15.47;3.00;;;7.60;99.90;;;;;;5059070;28;20196;-75
2020/12/20 02:04:48;;;;;;;15.90;4.13;;;7.60;99.90;;;;;;5052133;28;20195;-75
2020/12/20 02:07:15;;;;;;;20.77;3.90;;;7.60;99.90;;;;;;5052253;28;20368;-75
2020/12/20 02:09:43;;;;;;;22.70;4.53;;;7.60;99.90;;;;;;5051884;28;20691;-75
2020/12/20 02:12:11;;;;;;;18.27;3.67;;;7.60;99.90;;;;;;5051933;28;20227;-76
2020/12/20 02:14:38;;;;;;;12.23;3.10;;;7.60;99.90;;;;;;5052014;28;20262;-76
2020/12/20 02:17:05;;;;;;;13.50;2.77;;;7.60;99.90;;;;;;5051915;28;20281;-75
2020/12/20 02:19:32;;;;;;;13.23;2.60;;;7.60;99.90;;;;;;5052372;28;20453;-75
2020/12/20 02:21:59;;;;;;;15.37;3.00;;;7.60;99.90;;;;;;5051850;28;20283;-75
2020/12/20 02:24:26;;;;;;;14.27;2.80;;;7.60;99.90;;;;;;5051878;28;20287;-75
2020/12/20 02:26:53;;;;;;;16.10;3.37;;;7.60;99.90;;;;;;5068419;28;20238;-75
2020/12/20 02:29:19;;;;;;;15.47;2.93;;;7.50;99.90;;;;;;5071962;28;20277;-75
2020/12/20 02:31:46;;;;;;;16.93;3.13;;;7.50;99.90;;;;;;5075034;28;20269;-75
2020/12/20 02:34:12;;;;;;;15.57;3.07;;;7.50;99.90;;;;;;5075391;28;20286;-75
2020/12/20 02:36:39;;;;;;;9.40;2.70;;;7.60;99.90;;;;;;5075575;28;20244;-75
2020/12/20 02:39:08;;;;;;;17.57;2.97;;;7.60;99.90;;;;;;5075586;28;20226;-75
2020/12/20 02:41:34;;;;;;;13.00;2.77;;;7.60;99.90;;;;;;5075639;28;20234;-75
2020/12/20 02:44:01;;;;;;;12.27;2.60;;;7.60;99.90;;;;;;5075943;28;20286;-75
2020/12/20 02:46:27;;;;;;;13.07;3.20;;;7.60;99.90;;;;;;5073610;28;20235;-75
2020/12/20 02:48:54;;;;;;;13.40;2.90;;;7.70;99.90;;;;;;5061348;28;20647;-75
2020/12/20 02:51:20;;;;;;;13.87;3.00;;;7.70;99.90;;;;;;5055702;28;20227;-75
2020/12/20 02:53:47;;;;;;;15.80;2.77;;;7.70;99.90;;;;;;5074156;28;20247;-75
2020/12/20 02:56:14;;;;;;;13.17;2.97;;;7.60;99.90;;;;;;5075093;28;20633;-75
2020/12/20 02:58:41;;;;;;;17.23;3.47;;;7.60;99.90;;;;;;5055382;28;20235;-75
2020/12/20 03:01:08;;;;;;;18.07;4.57;;;7.50;99.90;;;;;;5055379;28;20249;-75
2020/12/20 03:03:34;;;;;;;16.20;4.30;;;7.50;99.90;;;;;;5055609;28;20238;-75
2020/12/20 03:06:00;;;;;;;10.60;3.77;;;7.50;99.90;;;;;;5055382;28;20314;-75
2020/12/20 03:08:27;;;;;;;14.23;3.63;;;7.50;99.90;;;;;;5055544;28;20577;-75
2020/12/20 03:10:53;;;;;;;17.73;3.40;;;7.50;99.90;;;;;;5055003;28;20231;-75
2020/12/20 03:13:21;;;;;;;16.93;3.07;;;7.60;99.90;;;;;;5055527;28;20605;-75
2020/12/20 03:15:47;;;;;;;15.37;3.17;;;7.60;99.90;;;;;;5055465;28;20278;-75
2020/12/20 03:18:13;;;;;;;9.93;2.70;;;7.60;99.90;;;;;;5055378;28;20239;-75
2020/12/20 03:20:40;;;;;;;12.20;3.00;;;7.70;99.90;;;;;;5055256;28;20619;-75
2020/12/20 03:23:06;;;;;;;15.17;3.07;;;7.60;99.90;;;;;;5055444;28;20243;-75
2020/12/20 03:25:33;;;;;;;14.50;2.87;;;7.60;99.90;;;;;;5060747;28;20278;-75
2020/12/20 03:27:59;;;;;;;14.93;3.20;;;7.50;99.90;;;;;;5074693;28;20264;-75
2020/12/20 03:30:27;;;;;;;15.67;2.73;;;7.40;99.90;;;;;;5057375;28;20274;-75
2020/12/20 03:32:54;;;;;;;20.63;3.43;;;7.40;99.90;;;;;;5074986;28;20286;-75
2020/12/20 03:35:20;;;;;;;14.20;3.23;;;7.40;99.90;;;;;;5074601;28;20317;-75
2020/12/20 03:37:52;;;;;;;14.00;2.80;;;7.40;99.90;;;;;;5074907;28;20726;-75
2020/12/20 03:40:20;;;;;;;9.97;2.97;;;7.30;99.90;;;;;;5074386;28;20231;-75
2020/12/20 03:42:47;;;;;;;18.13;3.73;;;7.30;99.90;;;;;;5074554;28;20672;-75
2020/12/20 03:45:15;;;;;;;17.80;3.57;;;7.30;99.90;;;;;;5074226;28;20234;-75
2020/12/20 03:47:43;;;;;;;18.93;3.47;;;7.20;99.90;;;;;;5074566;28;20683;-75
2020/12/20 03:50:09;;;;;;;17.63;3.50;;;7.20;99.90;;;;;;5074449;28;20230;-75
2020/12/20 03:52:35;;;;;;;14.83;3.23;;;7.10;99.90;;;;;;5074407;28;20678;-75
2020/12/20 03:55:02;;;;;;;15.63;3.30;;;7.00;99.90;;;;;;5074098;28;20305;-75
2020/12/20 03:57:28;;;;;;;15.00;3.20;;;7.10;99.90;;;;;;5074303;28;20244;-75
2020/12/20 03:59:57;;;;;;;15.20;3.07;;;7.10;99.90;;;;;;5074585;28;20290;-75
2020/12/20 04:02:24;;;;;;;14.97;3.37;;;6.90;99.90;;;;;;5074394;28;20206;-75
2020/12/20 04:04:51;;;;;;;14.47;3.83;;;7.00;99.90;;;;;;5074134;28;20672;-75
2020/12/20 04:07:17;;;;;;;16.10;3.10;;;7.00;99.90;;;;;;5069587;28;20239;-75
2020/12/20 04:09:44;;;;;;;15.93;3.33;;;7.00;99.90;;;;;;5053958;28;20214;-75
2020/12/20 04:12:10;;;;;;;16.93;3.27;;;6.80;99.90;;;;;;5054393;28;20203;-75
2020/12/20 04:14:37;;;;;;;12.30;3.23;;;6.80;99.90;;;;;;5054004;28;20314;-75
2020/12/20 04:17:03;;;;;;;18.00;3.37;;;6.90;99.90;;;;;;5054291;28;20246;-75
2020/12/20 04:19:29;;;;;;;19.27;3.33;;;6.80;99.90;;;;;;5070704;28;20237;-76
2020/12/20 04:21:57;;;;;;;18.27;3.67;;;6.90;99.90;;;;;;5094624;28;20233;-75
2020/12/20 04:24:23;;;;;;;21.67;4.10;;;6.80;99.90;;;;;;5093648;28;20684;-76
2020/12/20 04:26:49;;;;;;;17.00;3.27;;;6.80;99.90;;;;;;5076667;28;20272;-76
2020/12/20 04:29:16;;;;;;;15.10;2.93;;;6.80;99.90;;;;;;5073629;28;20280;-76
2020/12/20 04:31:42;;;;;;;19.60;3.43;;;6.80;99.90;;;;;;5073783;28;20235;-76
2020/12/20 04:34:09;;;;;;;15.17;3.33;;;6.70;99.90;;;;;;5073911;28;20246;-76
2020/12/20 04:36:35;;;;;;;21.67;4.13;;;6.70;99.90;;;;;;5073280;28;20742;-76
2020/12/20 04:39:03;;;;;;;17.40;3.50;;;6.70;99.90;;;;;;5073421;28;20594;-76
2020/12/20 04:41:30;;;;;;;19.63;3.83;;;6.90;99.90;;;;;;5073505;28;20244;-75
2020/12/20 04:43:57;;;;;;;19.97;3.83;;;7.00;99.90;;;;;;5073727;28;20286;-76
2020/12/20 04:46:27;;;;;;;18.57;3.07;;;7.20;99.90;;;;;;5073582;28;20252;-75
2020/12/20 04:48:54;;;;;;;22.13;3.73;;;7.30;99.90;;;;;;5073513;28;20222;-76
2020/12/20 04:51:21;;;;;;;18.57;3.23;;;7.40;99.90;;;;;;5073367;28;20285;-76
2020/12/20 04:53:50;;;;;;;18.53;2.73;;;7.60;99.90;;;;;;5054700;28;20215;-75
2020/12/20 04:56:20;;;;;;;15.17;2.60;;;7.60;99.90;;;;;;5073000;28;20760;-76
2020/12/20 04:58:46;;;;;;;16.07;2.80;;;7.70;99.90;;;;;;5072975;28;20210;-75
2020/12/20 05:01:13;;;;;;;12.93;2.40;;;7.70;99.90;;;;;;5072839;28;20293;-75
2020/12/20 05:03:39;;;;;;;12.77;2.50;;;7.70;99.90;;;;;;5072411;28;20306;-75
2020/12/20 05:06:06;;;;;;;19.73;2.70;;;7.80;99.90;;;;;;5072703;28;20666;-76
2020/12/20 05:08:32;;;;;;;12.23;2.63;;;7.80;99.90;;;;;;5073010;28;20280;-75
2020/12/20 05:10:59;;;;;;;14.87;2.40;;;7.80;99.90;;;;;;5073006;28;20297;-75
2020/12/20 05:13:38;;;;;;;14.63;2.30;;;7.80;99.90;;;;;;5072876;28;20567;-76
2020/12/20 05:16:05;;;;;;;16.83;2.07;;;7.80;99.90;;;;;;5072986;28;20234;-75
2020/12/20 05:18:31;;;;;;;18.80;2.37;;;7.80;99.90;;;;;;5072254;28;20714;-76
2020/12/20 05:20:58;;;;;;;13.20;2.40;;;7.80;99.90;;;;;;5072099;28;20214;-76
2020/12/20 05:23:29;;;;;;;17.27;2.77;;;7.80;99.90;;;;;;5072772;28;20199;-75
2020/12/20 05:26:06;;;;;;;15.07;2.10;;;7.80;99.90;;;;;;5072709;28;20616;-76
2020/12/20 05:28:33;;;;;;;12.90;2.20;;;7.80;99.90;;;;;;5072308;28;20349;-76
2020/12/20 05:31:08;;;;;;;12.77;1.93;;;7.80;99.90;;;;;;5072675;28;20285;-76
2020/12/20 05:33:35;;;;;;;11.43;2.63;;;7.90;99.90;;;;;;5072369;28;20202;-75
2020/12/20 05:36:03;;;;;;;10.47;2.57;;;7.90;99.90;;;;;;5072436;28;20254;-75
2020/12/20 05:38:30;;;;;;;10.87;2.00;;;7.80;99.90;;;;;;5072554;28;20237;-75
2020/12/20 05:40:56;;;;;;;12.87;1.87;;;7.80;99.90;;;;;;5072424;28;20233;-76
2020/12/20 05:43:24;;;;;;;11.10;1.83;;;7.80;99.90;;;;;;5072347;28;20203;-76
2020/12/20 05:45:52;;;;;;;8.27;1.90;;;7.70;99.90;;;;;;5072730;28;20215;-75
2020/12/20 05:48:20;;;;;;;12.00;1.97;;;7.70;99.90;;;;;;5072238;28;20242;-75
2020/12/20 05:50:51;;;;;;;10.80;1.90;;;7.70;99.90;;;;;;5071818;28;20245;-75
2020/12/20 05:53:23;;;;;;;13.53;2.03;;;7.60;99.90;;;;;;5066338;28;20231;-75
2020/12/20 05:55:49;;;;;;;10.07;2.23;;;7.60;99.90;;;;;;5072408;28;20666;-75
2020/12/20 05:58:16;;;;;;;13.60;1.93;;;7.60;99.90;;;;;;5072208;28;20206;-76
2020/12/20 06:00:44;;;;;;;9.33;2.23;;;7.50;99.90;;;;;;5071983;28;20245;-75
2020/12/20 06:03:11;;;;;;;11.97;1.50;;;7.50;99.90;;;;;;5072552;28;20234;-75
2020/12/20 06:05:40;;;;;;;8.90;1.83;;;7.60;99.90;;;;;;5071085;28;20282;-76
2020/12/20 06:08:08;;;;;;;11.10;1.90;;;7.50;99.90;;;;;;5072356;28;20621;-75
2020/12/20 06:10:41;;;;;;;14.17;2.10;;;7.40;99.90;;;;;;5071830;28;20325;-75
2020/12/20 06:13:09;;;;;;;8.97;2.00;;;7.40;99.90;;;;;;5072003;28;20234;-75
2020/12/20 06:15:40;;;;;;;10.50;2.03;;;7.40;99.90;;;;;;5071639;28;20679;-75
2020/12/20 06:18:13;;;;;;;8.87;1.57;;;7.30;99.90;;;;;;5072183;28;20240;-75
2020/12/20 06:20:54;;;;;;;13.83;1.87;;;7.30;99.90;;;;;;5073340;28;20241;-75
2020/12/20 06:23:23;;;;;;;8.50;1.80;;;7.30;99.90;;;;;;5092072;28;20201;-75
2020/12/20 06:25:51;;;;;;;9.47;1.77;;;7.30;99.90;;;;;;5077125;28;20290;-75
2020/12/20 06:28:21;;;;;;;10.70;1.40;;;7.20;99.90;;;;;;5051608;28;20314;-76
2020/12/20 06:30:47;;;;;;;6.93;1.47;;;7.20;99.90;;;;;;5052025;28;20235;-75
2020/12/20 06:33:33;;;;;;;8.57;1.50;;;7.20;99.90;;;;;;5051665;28;20268;-76
2020/12/20 06:36:02;;;;;;;6.43;1.23;;;7.20;99.90;;;;;;5050860;28;20315;-75
2020/12/20 06:38:29;;;;;;;6.27;1.10;;;7.10;99.90;;;;;;5057297;28;20309;-75
2020/12/20 06:40:55;;;;;;;8.30;1.47;;;7.00;99.90;;;;;;5071902;28;20230;-76
2020/12/20 06:43:30;;;;;;;8.80;1.40;;;7.10;99.90;;;;;;5071420;28;20195;-76
2020/12/20 06:45:57;;;;;;;9.67;1.33;;;7.00;99.90;;;;;;5071658;28;20237;-75
2020/12/20 06:48:35;;;;;;;7.27;1.60;;;7.00;99.90;;;;;;5071663;28;20241;-75
2020/12/20 06:53:56;;;;;;;8.13;1.80;;;6.90;99.90;;;;;;5070576;28;20194;-75
2020/12/20 06:56:23;;;;;;;9.60;1.67;;;6.80;99.90;;;;;;5071909;28;20226;-75
2020/12/20 06:58:51;;;;;;;8.03;2.10;;;6.80;99.90;;;;;;5071416;28;20283;-75
2020/12/20 07:01:37;;;;;;;7.80;1.83;;;6.80;99.90;;;;;;5053919;28;20745;-75
2020/12/20 07:04:06;;;;;;;11.73;2.40;;;6.80;99.90;;;;;;5071002;28;20318;-75
2020/12/20 07:06:33;;;;;;;7.43;1.27;;;6.80;99.90;;;;;;5071756;28;20252;-75
2020/12/20 07:09:05;;;;;;;6.63;1.70;;;6.80;99.90;;;;;;5071314;28;20238;-75
2020/12/20 07:11:39;;;;;;;9.20;2.23;;;6.80;99.90;;;;;;5071499;28;20198;-75
2020/12/20 07:14:17;;;;;;;9.00;2.30;;;6.80;99.90;;;;;;5071716;28;20286;-75
2020/12/20 07:16:44;;;;;;;7.67;2.10;;;6.60;99.90;;;;;;5072242;28;20802;-75
2020/12/20 07:19:20;;;;;;;10.97;2.73;;;6.60;99.90;;;;;;5075373;28;20281;-76
2020/12/20 07:21:58;;;;;;;8.53;2.30;;;6.50;99.90;;;;;;5069298;28;20242;-76
2020/12/20 07:24:26;;;;;;;8.47;1.80;;;6.50;99.90;;;;;;5054858;28;20242;-75
2020/12/20 07:29:50;;;;;;;8.30;1.97;;;6.50;99.90;;;;;;5072300;28;20234;-75
2020/12/20 07:32:16;;;;;;;8.00;1.63;;;6.40;99.90;;;;;;5074525;28;20621;-75
2020/12/20 07:34:47;;;;;;;7.83;1.70;;;6.40;99.90;;;;;;5074955;28;20677;-75
2020/12/20 07:37:14;;;;;;;9.80;3.20;;;6.30;99.90;;;;;;5074818;28;20201;-75
2020/12/20 07:40:08;;;;;;;11.03;5.07;;;6.40;99.90;;;;;;5074904;28;20233;-76
2020/12/20 07:42:34;;;;;;;13.50;6.33;;;6.40;99.90;;;;;;5075124;28;20240;-76
2020/12/20 07:45:32;;;;;;;18.27;8.90;;;6.30;99.90;;;;;;5074444;28;20244;-75
2020/12/20 07:48:22;;;;;;;15.77;8.27;;;6.20;99.90;;;;;;4992808;28;20801;-75
2020/12/20 07:50:49;;;;;;;11.27;5.80;;;6.20;99.90;;;;;;4991221;28;20295;-75
2020/12/20 07:53:16;;;;;;;8.90;4.27;;;6.30;99.90;;;;;;4993073;28;20608;-75
2020/12/20 07:55:48;;;;;;;7.83;3.33;;;6.20;99.90;;;;;;4992790;28;20327;-75
2020/12/20 07:58:15;;;;;;;9.53;2.90;;;6.20;99.90;;;;;;4982450;28;20343;-75
2020/12/20 08:00:44;;;;;;;7.73;2.60;;;6.30;99.90;;;;;;4973101;28;20247;-75
2020/12/20 08:06:07;;;;;;;9.73;2.70;;;6.20;99.90;;;;;;4968172;28;20584;-75
2020/12/20 08:08:34;;;;;;;9.93;2.20;;;6.20;99.90;;;;;;4973176;28;20302;-75
2020/12/20 08:11:05;;;;;;;9.87;2.60;;;6.20;99.90;;;;;;4972966;28;20688;-74
2020/12/20 08:13:32;;;;;;;9.60;2.27;;;6.50;99.90;;;;;;4973085;28;20292;-76
2020/12/20 08:15:58;;;;;;;9.07;2.70;;;6.70;99.90;;;;;;4972641;28;20321;-74
2020/12/20 08:18:53;;;;;;;8.87;2.80;;;6.90;99.90;;;;;;4973001;28;20641;-75
2020/12/20 08:21:27;;;;;;;8.57;3.40;;;7.10;99.90;;;;;;4972239;28;20293;-74
2020/12/20 08:23:56;;;;;;;6.87;3.30;;;7.40;99.90;;;;;;5005877;28;20390;-75
2020/12/20 08:26:32;;;;;;;11.43;3.47;;;7.60;99.90;;;;;;4998708;28;20268;-75
2020/12/20 08:29:20;;;;;;;12.80;4.57;;;7.80;99.90;;;;;;4990898;28;20640;-75
2020/12/20 08:31:47;;;;;;;10.43;4.53;;;8.10;99.90;;;;;;4991814;28;20296;-75
2020/12/20 08:34:18;;;;;;;11.67;5.23;;;8.40;99.90;;;;;;4991788;28;20624;-75
2020/12/20 08:36:48;;;;;;;10.13;4.60;;;8.80;99.90;;;;;;4991636;28;20863;-75
2020/12/20 08:39:15;;;;;;;8.30;4.00;;;9.00;99.90;;;;;;4972255;28;20293;-75
2020/12/20 08:41:41;;;;;;;9.10;3.83;;;9.30;99.90;;;;;;4972421;28;20245;-75
2020/12/20 08:44:26;;;;;;;7.70;3.30;;;9.60;99.90;;;;;;4972075;28;20285;-77
2020/12/20 08:46:52;;;;;;;9.90;3.53;;;10.00;99.90;;;;;;4979683;28;20754;-75
2020/12/20 08:49:20;;;;;;;6.37;3.27;;;10.50;99.90;;;;;;4991631;28;20240;-76
2020/12/20 08:51:49;;;;;;;6.80;3.10;;;10.60;99.90;;;;;;4991986;28;20270;-75
2020/12/20 08:54:24;;;;;;;7.37;2.80;;;10.80;99.90;;;;;;4991688;28;20210;-76
2020/12/20 08:57:02;;;;;;;6.77;2.70;;;11.00;99.90;;;;;;4986197;28;20261;-75
2020/12/20 08:59:30;;;;;;;8.50;3.20;;;11.10;99.90;;;;;;4988735;28;20233;-75
2020/12/20 09:04:38;;;;;;;6.97;2.33;;;11.60;99.90;;;;;;4989402;28;20197;-75
2020/12/20 09:07:15;;;;;;;5.63;3.03;;;11.90;99.90;;;;;;4991593;28;20287;-75
2020/12/20 09:12:23;;;;;;;6.23;3.03;;;12.50;99.90;;;;;;5058289;28;20294;-77
2020/12/20 09:15:36;;;;;;;6.43;3.20;;;13.10;99.90;;;;;;5070590;28;20289;-77
2020/12/20 09:18:14;;;;;;;6.17;2.80;;;13.40;99.90;;;;;;5070014;28;20242;-76
2020/12/20 09:20:41;;;;;;;6.23;3.07;;;13.60;99.90;;;;;;5068907;28;20213;-76
2020/12/20 09:23:17;;;;;;;6.25;3.42;;;14.30;99.90;;;;;;5079542;28;20236;-76
2020/12/20 09:25:44;;;;;;;10.52;5.38;;;14.40;99.90;;;;;;5081010;28;20194;-76
2020/12/20 09:28:12;;;;;;;7.25;3.17;;;14.10;99.90;;;;;;5071285;28;20729;-76
2020/12/20 09:31:04;;;;;;;4.72;2.00;;;13.90;99.90;;;;;;5071750;28;20245;-76
2020/12/20 09:33:32;;;;;;;5.10;1.65;;;13.70;99.90;;;;;;5067380;28;20234;-74
2020/12/20 09:36:01;;;;;;;5.97;1.92;;;13.40;99.90;;;;;;5071129;28;20419;-77
2020/12/20 09:38:47;;;;;;;8.13;4.43;;;13.40;99.90;;;;;;5071748;28;20207;-77
2020/12/20 09:41:16;;;;;;;8.50;4.47;;;13.40;99.90;;;;;;5070451;28;20286;-76
2020/12/20 09:43:43;;;;;;;8.55;3.95;;;13.60;99.90;;;;;;5071702;28;20250;-77
2020/12/20 09:46:10;;;;;;;8.18;3.70;;;13.80;99.90;;;;;;5070739;28;20291;-77
2020/12/20 09:48:54;;;;;;;9.35;5.22;;;13.60;99.90;;;;;;5070094;28;20234;-76
2020/12/20 09:51:22;;;;;;;9.93;6.03;;;14.10;99.90;;;;;;5066728;28;20226;-75
2020/12/20 09:53:50;;;;;;;7.33;3.33;;;13.80;99.90;;;;;;5071490;28;20235;-76
2020/12/20 09:56:17;;;;;;;7.47;2.57;;;13.90;99.90;;;;;;5071444;28;20266;-77
2020/12/20 09:58:44;;;;;;;7.63;2.30;;;13.70;99.90;;;;;;5062461;28;20242;-76
2020/12/20 10:01:16;;;;;;;4.83;1.93;;;13.70;99.90;;;;;;5072160;28;20231;-77
2020/12/20 10:03:42;;;;;;;5.90;2.00;;;13.90;99.90;;;;;;5070030;28;20685;-76
2020/12/20 10:06:08;;;;;;;6.47;1.90;;;14.10;99.90;;;;;;5071403;28;20286;-77
2020/12/20 10:08:35;;;;;;;8.00;2.00;;;14.60;99.90;;;;;;5063562;28;20231;-77
2020/12/20 10:11:02;;;;;;;5.53;2.60;;;14.80;99.90;;;;;;5064282;28;20239;-75
2020/12/20 10:13:28;;;;;;;7.40;3.63;;;14.80;99.90;;;;;;5071026;28;20282;-74
2020/12/20 10:15:55;;;;;;;9.50;3.60;;;14.90;99.90;;;;;;5071309;28;20298;-75
2020/12/20 10:18:21;;;;;;;5.90;3.23;;;14.70;99.90;;;;;;5071300;28;20357;-74
2020/12/20 10:20:47;;;;;;;5.93;1.98;;;15.20;99.90;;;;;;5071142;28;20213;-75
2020/12/20 10:23:14;;;;;;;7.22;1.90;;;15.10;99.90;;;;;;5071116;28;20234;-74
2020/12/20 10:25:41;;;;;;;7.78;1.92;;;15.20;99.90;;;;;;5065967;28;20282;-75
2020/12/20 10:28:23;;;;;;;6.45;2.17;;;15.30;99.90;;;;;;5071707;28;20365;-75
2020/12/20 10:30:49;;;;;;;9.70;2.63;;;14.80;99.90;;;;;;5051809;28;20234;-75
2020/12/20 10:33:16;;;;;;;6.10;2.78;;;14.70;99.90;;;;;;5071577;28;20292;-74
2020/12/20 10:35:42;;;;;;;8.52;1.77;;;14.60;99.90;;;;;;5070913;28;20265;-74
2020/12/20 10:38:09;;;;;;;6.23;1.53;;;14.40;99.90;;;;;;5071489;28;20242;-76
2020/12/20 10:40:35;;;;;;;6.70;2.00;;;14.50;99.90;;;;;;5066281;28;20206;-76
2020/12/20 10:45:45;;;;;;;8.35;2.17;;;15.20;99.90;;;;;;5069724;28;20232;-76
2020/12/20 10:48:11;;;;;;;5.78;1.90;;;15.40;99.90;;;;;;5070923;28;20223;-76
2020/12/20 10:50:38;;;;;;;7.55;2.58;;;15.30;99.90;;;;;;5070755;28;20234;-76
2020/12/20 10:53:14;;;;;;;12.50;5.20;;;15.00;99.90;;;;;;5066132;28;20653;-75
2020/12/20 10:55:50;;;;;;;10.57;4.00;;;14.80;99.90;;;;;;5063860;28;20646;-76
2020/12/20 10:58:16;;;;;;;9.70;4.70;;;14.80;99.90;;;;;;5068839;28;20756;-75
2020/12/20 11:00:43;;;;;;;8.95;4.78;;;14.90;99.90;;;;;;5070727;28;20235;-75
2020/12/20 11:03:10;;;;;;;15.57;9.70;;;14.90;99.90;;;;;;5072960;28;20233;-76
2020/12/20 11:05:36;;;;;;;11.40;5.33;;;15.20;99.90;;;;;;5074904;28;20274;-76
2020/12/20 11:08:03;;;;;;;6.17;2.00;;;15.20;99.90;;;;;;5073848;28;20227;-75
2020/12/20 11:10:29;;;;;;;6.78;1.85;;;15.30;99.90;;;;;;5065953;28;20227;-75
2020/12/20 11:13:16;;;;;;;9.10;1.67;;;15.20;99.90;;;;;;5073391;28;20250;-75
2020/12/20 11:15:46;;;;;;;4.47;1.50;;;15.40;99.90;;;;;;5021953;28;20308;-75
2020/12/20 11:18:13;;;;;;;7.87;1.70;;;15.50;99.90;;;;;;5028172;28;20202;-75
2020/12/20 11:23:22;;;;;;;5.78;1.50;;;15.80;99.90;;;;;;5026227;28;20283;-77
2020/12/20 11:25:48;;;;;;;6.15;1.40;;;15.60;99.90;;;;;;5013904;28;20283;-76
2020/12/20 11:28:38;;;;;;;7.28;1.40;;;15.70;99.90;;;;;;5030582;28;20658;-76
2020/12/20 11:31:06;;;;;;;3.88;1.25;;;15.60;99.90;;;;;;5030493;28;20228;-77
2020/12/20 11:33:58;;;;;;;5.80;1.30;;;15.50;99.90;;;;;;5009508;28;20241;-76
2020/12/20 11:36:27;;;;;;;8.38;1.77;;;15.20;99.90;;;;;;5022912;28;20252;-75
2020/12/20 11:41:36;;;;;;;8.27;1.70;;;15.30;99.90;;;;;;5028157;28;20196;-76
2020/12/20 11:44:03;;;;;;;8.20;1.63;;;15.10;99.90;;;;;;5029551;28;20287;-76
2020/12/20 11:46:30;;;;;;;7.37;1.43;;;14.60;99.90;;;;;;5030394;28;20764;-76
2020/12/20 11:48:57;;;;;;;5.83;1.50;;;14.50;99.90;;;;;;5032251;28;20632;-77
2020/12/20 11:51:26;;;;;;;6.17;1.63;;;14.80;99.90;;;;;;5032133;28;20243;-75
2020/12/20 11:53:53;;;;;;;8.83;2.27;;;15.00;99.90;;;;;;5065444;28;20199;-77
2020/12/20 11:56:20;;;;;;;7.80;2.10;;;15.20;99.90;;;;;;5073882;28;20230;-78
2020/12/20 11:58:46;;;;;;;6.37;1.77;;;15.30;99.90;;;;;;5074240;28;20284;-77
2020/12/20 12:01:12;;;;;;;4.67;1.77;;;15.40;99.90;;;;;;5074592;28;20238;-75
2020/12/20 12:03:40;;;;;;;7.30;1.60;;;15.60;99.90;;;;;;5074211;28;20337;-78
2020/12/20 12:06:06;;;;;;;9.40;1.87;;;15.40;99.90;;;;;;5074402;28;20747;-75
2020/12/20 12:08:33;;;;;;;7.13;1.63;;;15.20;99.90;;;;;;5060749;28;20202;-76
2020/12/20 12:16:28;;;;;;;8.47;2.30;;;15.50;99.90;;;;;;5071560;28;20226;-75
2020/12/20 12:18:55;;;;;;;7.73;2.33;;;14.70;99.90;;;;;;5074049;28;20289;-77
2020/12/20 12:21:26;;;;;;;8.10;2.13;;;14.50;99.90;;;;;;5068043;28;20231;-77
2020/12/20 12:23:52;;;;;;;7.40;2.27;;;13.80;99.90;;;;;;5061202;28;20219;-77
2020/12/20 12:26:19;;;;;;;7.27;2.30;;;13.50;99.90;;;;;;5067301;28;20254;-77
2020/12/20 12:29:07;;;;;;;10.67;2.30;;;13.50;99.90;;;;;;5071148;28;20258;-77
2020/12/20 12:31:36;;;;;;;7.80;2.37;;;13.50;99.90;;;;;;5057524;28;20250;-77
2020/12/20 12:34:03;;;;;;;10.63;2.57;;;13.30;99.90;;;;;;5070548;28;20241;-77
2020/12/20 12:37:02;;;;;;;9.77;1.50;;;13.40;99.90;;;;;;5070336;28;20302;-77
2020/12/20 12:39:29;;;;;;;10.67;2.17;;;13.30;99.90;;;;;;5065077;28;20223;-77
2020/12/20 12:44:42;;;;;;;10.13;3.40;;;13.30;99.90;;;;;;5061315;28;20686;-77
2020/12/20 12:47:08;;;;;;;11.43;3.60;;;13.50;99.90;;;;;;5070891;28;20254;-77
2020/12/20 12:49:39;;;;;;;9.00;4.03;;;13.30;99.90;;;;;;5067926;28;20291;-77
2020/12/20 12:52:05;;;;;;;6.40;2.60;;;13.30;99.90;;;;;;5065424;28;20337;-77
2020/12/20 12:54:32;;;;;;;10.27;2.93;;;13.20;99.90;;;;;;5076765;28;20194;-75
2020/12/20 12:56:59;;;;;;;9.80;2.33;;;13.40;99.90;;;;;;5067823;28;20226;-76
2020/12/20 12:59:26;;;;;;;7.47;2.50;;;13.60;99.90;;;;;;5070268;28;20238;-76
2020/12/20 13:01:53;;;;;;;9.10;2.80;;;13.40;99.90;;;;;;5068085;28;20274;-76
2020/12/20 13:04:19;;;;;;;8.67;2.30;;;13.10;99.90;;;;;;5070641;28;20230;-76
2020/12/20 13:06:47;;;;;;;9.10;2.40;;;12.90;99.90;;;;;;5073621;28;20195;-76
2020/12/20 13:09:14;;;;;;;7.67;2.07;;;12.90;99.90;;;;;;5070066;28;20275;-76
2020/12/20 13:11:41;;;;;;;8.20;2.53;;;12.70;99.90;;;;;;5072801;28;20206;-76
2020/12/20 13:14:07;;;;;;;10.20;2.30;;;12.90;99.90;;;;;;5085821;28;20233;-76
2020/12/20 13:16:34;;;;;;;9.43;1.90;;;12.90;99.90;;;;;;5075800;28;20306;-76
2020/12/20 13:19:01;;;;;;;10.80;2.40;;;13.00;99.90;;;;;;5072481;28;20333;-76
2020/12/20 13:21:27;;;;;;;9.53;2.37;;;12.90;99.90;;;;;;5070785;28;20234;-76
2020/12/20 13:23:55;;;;;;;11.97;2.70;;;12.90;99.90;;;;;;5056320;28;20281;-76
2020/12/20 13:26:22;;;;;;;8.63;2.07;;;13.00;99.90;;;;;;5071533;28;20306;-76
2020/12/20 13:28:48;;;;;;;7.77;2.43;;;13.10;99.90;;;;;;5072716;28;20277;-76